Time;durP1;ratioP1;P1;durP2;ratioP2;P2;SDS_P1;SDS_P2;PMS_P1;PMS_P2;Temp;Humidity;BMP_temperature;BMP_pressure;BME280_temperature;BME280_humidity;BME280_pressure;Samples;Min_cycle;Max_cycle;Signal;HPM_P1;HPM_P2
2022/09/03 00:00:54;;;;;;;;;;;20.20;99.90;;;;;;5062468;28;19927;-77
2022/09/03 00:03:23;;;;;;;;;;;20.30;99.90;;;;;;5065736;28;19912;-77
2022/09/03 00:05:53;;;;;;;;;;;20.30;99.90;;;;;;5090872;28;20277;-77
2022/09/03 00:08:27;;;;;;;;;;;20.30;99.90;;;;;;5059164;28;19908;-77
2022/09/03 00:11:01;;;;;;;;;;;20.40;99.90;;;;;;5078381;28;19912;-76
2022/09/03 00:13:45;;;;;;;;;;;20.40;99.90;;;;;;5072713;28;20346;-76
2022/09/03 00:16:12;;;;;;;;;;;20.40;99.90;;;;;;5054559;28;19905;-76
2022/09/03 00:18:47;;;;;;;;;;;20.50;99.90;;;;;;5073157;28;20370;-78
2022/09/03 00:21:14;;;;;;;;;;;20.40;99.90;;;;;;5054891;28;19905;-77
2022/09/03 00:23:41;;;;;;;;;;;20.40;99.90;;;;;;5072839;28;20401;-79
2022/09/03 00:26:12;;;;;;;;;;;20.30;99.90;;;;;;5072426;28;19954;-76
2022/09/03 00:28:44;;;;;;;;;;;20.40;99.90;;;;;;5072441;28;20026;-78
2022/09/03 00:31:18;;;;;;;;;;;20.30;99.90;;;;;;5072531;28;20061;-76
2022/09/03 00:33:46;;;;;;;;;;;20.30;99.90;;;;;;5072461;28;20514;-76
2022/09/03 00:36:17;;;;;;;;;;;20.30;99.90;;;;;;5071859;28;20497;-77
2022/09/03 00:38:42;;;;;;;;;;;20.20;99.90;;;;;;5071857;28;20311;-78
2022/09/03 00:41:17;;;;;;;;;;;20.20;99.90;;;;;;5069555;28;19904;-76
2022/09/03 00:43:52;;;;;;;;;;;20.20;99.90;;;;;;5067938;28;19908;-77
2022/09/03 00:46:30;;;;;;;;;;;20.20;99.90;;;;;;5066935;28;20362;-76
2022/09/03 00:48:58;;;;;;;;;;;20.20;99.90;;;;;;5066818;28;19911;-77
2022/09/03 00:51:38;;;;;;;;;;;20.10;99.90;;;;;;5065593;28;19912;-76
2022/09/03 00:54:07;;;;;;;;;;;20.10;99.90;;;;;;5067693;28;19917;-76
2022/09/03 00:56:39;;;;;;;;;;;20.00;99.90;;;;;;5068342;28;19984;-76
2022/09/03 00:59:08;;;;;;;;;;;20.10;99.90;;;;;;5067582;28;19915;-78
2022/09/03 01:01:47;;;;;;;;;;;20.00;99.90;;;;;;5065693;28;19905;-76
2022/09/03 01:04:24;;;;;;;;;;;20.00;99.90;;;;;;5068735;28;19908;-77
2022/09/03 01:06:57;;;;;;;;;;;20.00;99.90;;;;;;5086750;28;19947;-77
2022/09/03 01:09:22;;;;;;;;;;;20.00;99.90;;;;;;5072045;28;19923;-77
2022/09/03 01:12:12;;;;;;;;;;;20.00;99.90;;;;;;5071286;28;19908;-77
2022/09/03 01:14:42;;;;;;;;;;;20.00;99.90;;;;;;5071142;28;20314;-77
2022/09/03 01:17:20;;;;;;;;;;;20.00;99.90;;;;;;5053364;28;19904;-76
2022/09/03 01:19:45;;;;;;;;;;;20.10;99.90;;;;;;5052147;28;20441;-78
2022/09/03 01:22:24;;;;;;;;;;;20.20;99.90;;;;;;5066751;28;19908;-76
2022/09/03 01:24:57;;;;;;;;;;;20.10;99.90;;;;;;5069347;28;19916;-78
2022/09/03 01:27:42;;;;;;;;;;;20.10;99.90;;;;;;5067104;28;19912;-76
2022/09/03 01:30:17;;;;;;;;;;;20.10;99.90;;;;;;5076282;28;19919;-79
2022/09/03 01:32:55;;;;;;;;;;;20.10;99.90;;;;;;5091658;28;19904;-76
2022/09/03 01:35:33;;;;;;;;;;;20.10;99.90;;;;;;5078804;28;19920;-76
2022/09/03 01:38:05;;;;;;;;;;;20.00;99.90;;;;;;5071126;28;19908;-75
2022/09/03 01:42:12;;;;;;;;;;;20.00;99.90;;;;;;5069308;28;19913;-78
2022/09/03 01:44:08;;;;;;;;;;;19.80;99.90;;;;;;5025882;28;19920;-75
2022/09/03 01:46:40;;;;;;;;;;;19.80;99.90;;;;;;5032221;28;19908;-75
2022/09/03 01:49:14;;;;;;;;;;;19.70;99.90;;;;;;5067829;28;19916;-76
2022/09/03 01:51:40;;;;;;;;;;;19.70;99.90;;;;;;5066307;28;20431;-76
2022/09/03 01:54:12;;;;;;;;;;;19.80;99.90;;;;;;5068661;28;19955;-75
2022/09/03 01:56:37;;;;;;;;;;;19.90;99.90;;;;;;5067908;28;20346;-77
2022/09/03 01:59:20;;;;;;;;;;;19.80;99.90;;;;;;5069141;28;19927;-76
2022/09/03 02:01:51;;;;;;;;;;;19.80;99.90;;;;;;5037999;28;19916;-76
2022/09/03 02:04:19;;;;;;;;;;;19.90;99.90;;;;;;5067496;28;20319;-79
2022/09/03 02:06:47;;;;;;;;;;;19.90;99.90;;;;;;5051123;28;20328;-76
2022/09/03 02:09:13;;;;;;;;;;;19.80;99.90;;;;;;5070475;28;20390;-76
2022/09/03 02:11:40;;;;;;;;;;;19.90;99.90;;;;;;5070202;28;20017;-78
2022/09/03 02:14:05;;;;;;;;;;;19.80;99.90;;;;;;5057649;28;20363;-78
2022/09/03 02:16:32;;;;;;;;;;;19.70;99.90;;;;;;5071708;28;19960;-76
2022/09/03 02:19:01;;;;;;;;;;;19.60;99.90;;;;;;5072707;28;19916;-77
2022/09/03 02:21:32;;;;;;;;;;;19.60;99.90;;;;;;5052098;28;19916;-76
2022/09/03 02:23:57;;;;;;;;;;;19.60;99.90;;;;;;5070908;28;19912;-76
2022/09/03 02:26:23;;;;;;;;;;;19.50;99.90;;;;;;5070798;28;19908;-76
2022/09/03 02:28:49;;;;;;;;;;;19.50;99.90;;;;;;5073848;28;19997;-75
2022/09/03 02:31:15;;;;;;;;;;;19.50;99.90;;;;;;5050859;28;19908;-77
2022/09/03 02:33:43;;;;;;;;;;;19.50;99.90;;;;;;5058982;28;19908;-77
2022/09/03 02:36:10;;;;;;;;;;;19.60;99.90;;;;;;5071079;28;20466;-80
2022/09/03 02:38:36;;;;;;;;;;;19.60;99.90;;;;;;5070262;28;19964;-76
2022/09/03 02:41:02;;;;;;;;;;;19.50;99.90;;;;;;5071762;28;20015;-78
2022/09/03 02:43:46;;;;;;;;;;;19.50;99.90;;;;;;5070704;28;20671;-75
2022/09/03 02:46:16;;;;;;;;;;;19.50;99.90;;;;;;5066010;28;19935;-77
2022/09/03 02:48:41;;;;;;;;;;;19.50;99.90;;;;;;5066790;28;19974;-78
2022/09/03 02:51:07;;;;;;;;;;;19.50;99.90;;;;;;5066171;28;19916;-76
2022/09/03 02:53:32;;;;;;;;;;;19.50;99.90;;;;;;5072442;28;20018;-77
2022/09/03 02:55:59;;;;;;;;;;;19.50;99.90;;;;;;5065352;28;19905;-75
2022/09/03 02:58:25;;;;;;;;;;;19.40;99.90;;;;;;5053960;28;19967;-77
2022/09/03 03:00:51;;;;;;;;;;;19.50;99.90;;;;;;5070803;28;19943;-77
2022/09/03 03:03:17;;;;;;;;;;;19.40;99.90;;;;;;5070018;28;20410;-76
2022/09/03 03:05:44;;;;;;;;;;;19.30;99.90;;;;;;5063246;28;19917;-76
2022/09/03 03:08:11;;;;;;;;;;;19.20;99.90;;;;;;5069937;28;21120;-75
2022/09/03 03:10:37;;;;;;;;;;;19.30;99.90;;;;;;5070041;28;19919;-76
2022/09/03 03:13:03;;;;;;;;;;;19.20;99.90;;;;;;5071939;28;19908;-76
2022/09/03 03:15:28;;;;;;;;;;;19.20;99.90;;;;;;5073995;28;20388;-76
2022/09/03 03:17:57;;;;;;;;;;;19.20;99.90;;;;;;5077956;28;19923;-78
2022/09/03 03:20:22;;;;;;;;;;;19.10;99.90;;;;;;5071134;28;20401;-78
2022/09/03 03:22:48;;;;;;;;;;;19.00;99.90;;;;;;5087853;28;20010;-77
2022/09/03 03:25:14;;;;;;;;;;;19.00;99.90;;;;;;5088505;28;19935;-78
2022/09/03 03:27:41;;;;;;;;;;;19.00;99.90;;;;;;5085557;28;19920;-77
2022/09/03 03:30:09;;;;;;;;;;;19.00;99.90;;;;;;5085467;28;19908;-77
2022/09/03 03:32:35;;;;;;;;;;;18.80;99.90;;;;;;5078102;28;20366;-77
2022/09/03 03:35:00;;;;;;;;;;;18.80;99.90;;;;;;5076093;28;19949;-76
2022/09/03 03:37:26;;;;;;;;;;;18.80;99.90;;;;;;5073663;28;19904;-76
2022/09/03 03:39:51;;;;;;;;;;;18.90;99.90;;;;;;5072842;28;19908;-76
2022/09/03 03:42:17;;;;;;;;;;;18.90;99.90;;;;;;5053953;28;20515;-77
2022/09/03 03:44:43;;;;;;;;;;;18.90;99.90;;;;;;5071175;28;19939;-76
2022/09/03 03:47:08;;;;;;;;;;;19.00;99.90;;;;;;5069091;28;19916;-77
2022/09/03 03:49:34;;;;;;;;;;;19.10;99.90;;;;;;5052546;28;20353;-77
2022/09/03 03:52:01;;;;;;;;;;;19.10;99.90;;;;;;5068042;28;19939;-77
2022/09/03 03:54:27;;;;;;;;;;;19.10;99.90;;;;;;5065797;28;19920;-77
2022/09/03 03:56:53;;;;;;;;;;;19.00;99.90;;;;;;5069577;28;19909;-78
2022/09/03 03:59:19;;;;;;;;;;;19.10;99.90;;;;;;5067417;28;19922;-78
2022/09/03 04:01:44;;;;;;;;;;;18.90;99.90;;;;;;5068282;28;19931;-79
2022/09/03 04:04:10;;;;;;;;;;;19.00;99.90;;;;;;5071325;28;20396;-76
2022/09/03 04:06:35;;;;;;;;;;;19.00;99.90;;;;;;5071451;28;19935;-78
2022/09/03 04:09:01;;;;;;;;;;;19.00;99.90;;;;;;5082255;28;19919;-79
2022/09/03 04:11:27;;;;;;;;;;;19.00;99.90;;;;;;5076709;28;20004;-77
2022/09/03 04:13:53;;;;;;;;;;;19.00;99.90;;;;;;5054051;28;20003;-79
2022/09/03 04:16:19;;;;;;;;;;;19.00;99.90;;;;;;5069255;28;19908;-77
2022/09/03 04:18:48;;;;;;;;;;;19.10;99.90;;;;;;5051242;28;19912;-78
2022/09/03 04:21:15;;;;;;;;;;;19.10;99.90;;;;;;5070743;28;19908;-77
2022/09/03 04:23:42;;;;;;;;;;;19.10;99.90;;;;;;5069159;28;20255;-77
2022/09/03 04:26:08;;;;;;;;;;;19.00;99.90;;;;;;5067895;28;19915;-78
2022/09/03 04:28:34;;;;;;;;;;;19.10;99.90;;;;;;5067449;28;20317;-78
2022/09/03 04:31:04;;;;;;;;;;;19.10;99.90;;;;;;5071065;28;20416;-78
2022/09/03 04:33:31;;;;;;;;;;;19.10;99.90;;;;;;5066763;28;19912;-77
2022/09/03 04:36:04;;;;;;;;;;;19.10;99.90;;;;;;5066338;28;19920;-80
2022/09/03 04:38:31;;;;;;;;;;;19.10;99.90;;;;;;5053662;28;19913;-80
2022/09/03 04:40:58;;;;;;;;;;;19.00;99.90;;;;;;5049278;28;19908;-77
2022/09/03 04:43:23;;;;;;;;;;;19.00;99.90;;;;;;5070162;28;19916;-77
2022/09/03 04:45:49;;;;;;;;;;;18.90;99.90;;;;;;5069468;28;19912;-78
2022/09/03 04:48:15;;;;;;;;;;;18.90;99.90;;;;;;5068604;28;20862;-77
2022/09/03 04:50:40;;;;;;;;;;;18.80;99.90;;;;;;5068506;28;20052;-78
2022/09/03 04:53:06;;;;;;;;;;;18.80;99.90;;;;;;5054162;28;19909;-77
2022/09/03 04:55:35;;;;;;;;;;;18.80;99.90;;;;;;5081893;28;19970;-77
2022/09/03 04:58:01;;;;;;;;;;;19.00;99.90;;;;;;5069883;28;19909;-77
2022/09/03 05:00:27;;;;;;;;;;;19.10;99.90;;;;;;5068220;28;19951;-77
2022/09/03 05:02:52;;;;;;;;;;;19.00;99.90;;;;;;5067308;28;20281;-77
2022/09/03 05:05:18;;;;;;;;;;;19.00;99.90;;;;;;5062096;28;19916;-76
2022/09/03 05:07:44;;;;;;;;;;;19.00;99.90;;;;;;5048716;28;20453;-78
2022/09/03 05:10:14;;;;;;;;;;;19.10;99.90;;;;;;5066354;28;19916;-76
2022/09/03 05:12:40;;;;;;;;;;;19.00;99.90;;;;;;5068614;28;20516;-77
2022/09/03 05:15:06;;;;;;;;;;;19.00;99.90;;;;;;5069874;28;19934;-77
2022/09/03 05:17:32;;;;;;;;;;;19.00;99.90;;;;;;5061023;28;19931;-77
2022/09/03 05:19:57;;;;;;;;;;;19.00;99.90;;;;;;5069776;28;19916;-76
2022/09/03 05:22:23;;;;;;;;;;;19.00;99.90;;;;;;5068872;28;20005;-77
2022/09/03 05:24:49;;;;;;;;;;;19.10;99.90;;;;;;5066993;28;19912;-76
2022/09/03 05:27:15;;;;;;;;;;;19.20;99.90;;;;;;5050063;28;19986;-76
2022/09/03 05:29:44;;;;;;;;;;;19.10;99.90;;;;;;5066951;28;19908;-78
2022/09/03 05:32:11;;;;;;;;;;;19.20;99.90;;;;;;5066776;28;20038;-75
2022/09/03 05:34:37;;;;;;;;;;;19.30;99.90;;;;;;5064452;28;19909;-75
2022/09/03 05:37:02;;;;;;;;;;;19.40;99.90;;;;;;5070946;28;19916;-79
2022/09/03 05:39:28;;;;;;;;;;;19.40;99.90;;;;;;5069403;28;19909;-76
2022/09/03 05:41:53;;;;;;;;;;;19.40;99.90;;;;;;5068439;28;20312;-78
2022/09/03 05:44:22;;;;;;;;;;;19.50;99.90;;;;;;5068483;28;19912;-77
2022/09/03 05:46:49;;;;;;;;;;;19.50;99.90;;;;;;5057943;28;19908;-79
2022/09/03 05:49:14;;;;;;;;;;;19.50;99.90;;;;;;5066371;28;19939;-79
2022/09/03 05:51:41;;;;;;;;;;;19.40;99.90;;;;;;5066213;28;19948;-77
2022/09/03 05:54:07;;;;;;;;;;;19.50;99.90;;;;;;5060826;28;19927;-77
2022/09/03 05:56:34;;;;;;;;;;;19.60;99.90;;;;;;5063713;28;20000;-77
2022/09/03 05:59:04;;;;;;;;;;;19.70;99.90;;;;;;5062018;28;19927;-78
2022/09/03 06:01:34;;;;;;;;;;;19.80;99.90;;;;;;5064973;28;19920;-76
2022/09/03 06:04:01;;;;;;;;;;;19.80;99.90;;;;;;5066268;28;20399;-76
2022/09/03 06:06:27;;;;;;;;;;;19.90;99.90;;;;;;5067599;28;19994;-77
2022/09/03 06:09:04;;;;;;;;;;;19.90;99.90;;;;;;5071414;28;19916;-77
2022/09/03 06:11:30;;;;;;;;;;;19.90;99.90;;;;;;5050708;28;19923;-77
2022/09/03 06:13:56;;;;;;;;;;;20.00;99.90;;;;;;5076661;28;19908;-77
2022/09/03 06:16:23;;;;;;;;;;;20.00;99.90;;;;;;5069081;28;19918;-77
2022/09/03 06:18:48;;;;;;;;;;;20.10;99.90;;;;;;5067350;28;19915;-78
2022/09/03 06:21:14;;;;;;;;;;;20.30;99.90;;;;;;5061909;28;19908;-76
2022/09/03 06:23:40;;;;;;;;;;;20.40;99.90;;;;;;5045369;28;20279;-77
2022/09/03 06:26:10;;;;;;;;;;;20.50;99.90;;;;;;5067010;28;19971;-76
2022/09/03 06:28:36;;;;;;;;;;;20.60;99.90;;;;;;5066585;28;19916;-77
2022/09/03 06:31:06;;;;;;;;;;;20.80;99.90;;;;;;5066402;28;20483;-71
2022/09/03 06:33:33;;;;;;;;;;;20.80;99.90;;;;;;5042337;28;19943;-68
2022/09/03 06:35:59;;;;;;;;;;;21.00;99.90;;;;;;5069982;28;19919;-68
2022/09/03 06:38:26;;;;;;;;;;;21.20;99.90;;;;;;5059881;28;19917;-68
2022/09/03 06:40:55;;;;;;;;;;;21.30;99.90;;;;;;5061588;28;19915;-68
2022/09/03 06:43:21;;;;;;;;;;;21.40;99.90;;;;;;5063325;28;19998;-67
2022/09/03 06:45:55;;;;;;;;;;;21.30;99.90;;;;;;5063018;28;20423;-71
2022/09/03 06:48:22;;;;;;;;;;;21.30;99.90;;;;;;5059889;28;19916;-68
2022/09/03 06:51:13;;;;;;;;;;;21.30;99.90;;;;;;5066939;28;19912;-68
2022/09/03 06:53:40;;;;;;;;;;;21.40;99.90;;;;;;5060962;28;19935;-68
2022/09/03 06:56:07;;;;;;;;;;;21.50;99.90;;;;;;5063743;28;20325;-68
2022/09/03 06:58:37;;;;;;;;;;;21.50;99.90;;;;;;5072901;28;20412;-67
2022/09/03 07:01:05;;;;;;;;;;;21.60;99.90;;;;;;5074707;28;19908;-68
2022/09/03 07:03:31;;;;;;;;;;;21.70;99.90;;;;;;5071419;28;20350;-68
2022/09/03 07:06:00;;;;;;;;;;;21.70;99.90;;;;;;5080337;28;19958;-67
2022/09/03 07:08:26;;;;;;;;;;;21.80;99.90;;;;;;5093130;28;19904;-67
2022/09/03 07:10:52;;;;;;;;;;;21.90;99.90;;;;;;5081913;28;20294;-69
2022/09/03 07:13:17;;;;;;;;;;;22.00;99.90;;;;;;5060416;28;19904;-68
2022/09/03 07:15:43;;;;;;;;;;;22.20;99.90;;;;;;5079898;28;19952;-68
2022/09/03 07:18:09;;;;;;;;;;;22.30;99.90;;;;;;5072944;28;20042;-68
2022/09/03 07:20:35;;;;;;;;;;;22.50;99.90;;;;;;5073282;28;19957;-68
2022/09/03 07:23:00;;;;;;;;;;;22.50;99.90;;;;;;5072938;28;19904;-68
2022/09/03 07:25:27;;;;;;;;;;;22.40;99.90;;;;;;5072788;28;20350;-68
2022/09/03 07:27:53;;;;;;;;;;;22.50;99.90;;;;;;5070669;28;19908;-68
2022/09/03 07:30:19;;;;;;;;;;;22.50;99.90;;;;;;5076630;28;20035;-67
2022/09/03 07:32:45;;;;;;;;;;;22.60;99.90;;;;;;5074139;28;20286;-68
2022/09/03 07:35:12;;;;;;;;;;;22.80;99.90;;;;;;5076583;28;19960;-68
2022/09/03 07:37:41;;;;;;;;;;;22.70;99.90;;;;;;5068937;28;19904;-68
2022/09/03 07:40:08;;;;;;;;;;;22.80;99.90;;;;;;5083838;28;19931;-68
2022/09/03 07:42:34;;;;;;;;;;;22.80;99.90;;;;;;5092938;28;19950;-68
2022/09/03 07:45:04;;;;;;;;;;;22.80;99.90;;;;;;5088650;28;19913;-68
2022/09/03 07:47:30;;;;;;;;;;;22.90;99.90;;;;;;5071457;28;19912;-67
2022/09/03 07:49:56;;;;;;;;;;;22.90;99.90;;;;;;5068491;28;20524;-68
2022/09/03 07:52:22;;;;;;;;;;;23.00;99.90;;;;;;5078177;28;19963;-69
2022/09/03 07:54:47;;;;;;;;;;;23.20;99.90;;;;;;5071625;28;19912;-68
2022/09/03 07:57:13;;;;;;;;;;;23.20;99.90;;;;;;5071885;28;19908;-68
2022/09/03 07:59:39;;;;;;;;;;;23.20;99.90;;;;;;5071072;28;19932;-68
2022/09/03 08:02:05;;;;;;;;;;;23.30;99.90;;;;;;5071669;28;19916;-67
2022/09/03 08:04:32;;;;;;;;;;;23.50;99.90;;;;;;5072254;28;20294;-69
2022/09/03 08:06:58;;;;;;;;;;;23.50;99.90;;;;;;5068300;28;20002;-67
2022/09/03 08:09:24;;;;;;;;;;;23.60;99.90;;;;;;5068350;28;19993;-68
2022/09/03 08:11:50;;;;;;;;;;;23.80;99.90;;;;;;5070941;28;19971;-68
2022/09/03 08:14:15;;;;;;;;;;;23.90;99.90;;;;;;5070516;28;19919;-69
2022/09/03 08:16:42;;;;;;;;;;;23.90;99.90;;;;;;5068459;28;19928;-68
2022/09/03 08:19:08;;;;;;;;;;;23.90;99.90;;;;;;5083400;28;20385;-69
2022/09/03 08:21:33;;;;;;;;;;;24.00;99.90;;;;;;5075503;28;19913;-72
2022/09/03 08:24:02;;;;;;;;;;;24.10;99.90;;;;;;5075369;28;20423;-69
2022/09/03 08:26:30;;;;;;;;;;;24.10;99.90;;;;;;5072252;28;20247;-69
2022/09/03 08:28:55;;;;;;;;;;;24.20;99.90;;;;;;5080169;28;20297;-70
2022/09/03 08:31:22;;;;;;;;;;;24.30;99.90;;;;;;5072274;28;19966;-71
2022/09/03 08:33:49;;;;;;;;;;;24.20;99.90;;;;;;5057018;28;19908;-70
2022/09/03 08:36:17;;;;;;;;;;;24.20;99.90;;;;;;5062425;28;19959;-69
2022/09/03 08:38:44;;;;;;;;;;;24.20;99.90;;;;;;5071541;28;20274;-70
2022/09/03 08:41:09;;;;;;;;;;;24.20;99.90;;;;;;5071090;28;19908;-70
2022/09/03 08:43:44;;;;;;;;;;;24.40;99.90;;;;;;5071470;28;19954;-69
2022/09/03 08:46:10;;;;;;;;;;;24.50;99.90;;;;;;5069605;28;20346;-70
2022/09/03 08:48:35;;;;;;;;;;;24.60;99.90;;;;;;5089894;28;19926;-70
2022/09/03 08:51:03;;;;;;;;;;;24.70;99.90;;;;;;5091851;28;19914;-70
2022/09/03 08:53:40;;;;;;;;;;;24.60;99.90;;;;;;5091616;28;19908;-69
2022/09/03 08:56:41;;;;;;;;;;;24.70;99.90;;;;;;5086149;28;19909;-70
2022/09/03 08:59:08;;;;;;;;;;;24.70;99.90;;;;;;5027382;28;19955;-69
2022/09/03 09:01:42;;;;;;;;;;;24.70;99.90;;;;;;5078956;28;19911;-69
2022/09/03 09:04:17;;;;;;;;;;;24.50;99.90;;;;;;5091518;28;19912;-70
2022/09/03 09:06:52;;;;;;;;;;;24.50;99.90;;;;;;5088766;28;19937;-69
2022/09/03 09:09:17;;;;;;;;;;;24.40;99.90;;;;;;5047562;28;19974;-69
2022/09/03 09:11:49;;;;;;;;;;;24.30;99.90;;;;;;5071709;28;20362;-70
2022/09/03 09:14:15;;;;;;;;;;;24.30;99.90;;;;;;5071333;28;19974;-70
2022/09/03 09:16:47;;;;;;;;;;;24.40;99.90;;;;;;5070549;28;20274;-70
2022/09/03 09:19:15;;;;;;;;;;;24.40;99.90;;;;;;5078551;28;20036;-69
2022/09/03 09:21:44;;;;;;;;;;;24.40;99.90;;;;;;5067646;28;20003;-69
2022/09/03 09:24:30;;;;;;;;;;;24.30;99.90;;;;;;5069472;28;19919;-70
2022/09/03 09:27:01;;;;;;;;;;;24.20;99.90;;;;;;5072302;28;19905;-70
2022/09/03 09:29:30;;;;;;;;;;;24.10;99.90;;;;;;5071140;28;20259;-70
2022/09/03 09:31:56;;;;;;;;;;;24.00;99.90;;;;;;5051548;28;19909;-70
2022/09/03 09:34:22;;;;;;;;;;;24.20;99.90;;;;;;5070064;28;19995;-69
2022/09/03 09:36:49;;;;;;;;;;;24.20;99.90;;;;;;5070746;28;19919;-70
2022/09/03 09:39:14;;;;;;;;;;;24.30;99.90;;;;;;5070422;28;19967;-69
2022/09/03 09:41:40;;;;;;;;;;;24.20;99.90;;;;;;5071034;28;19908;-69
2022/09/03 09:44:06;;;;;;;;;;;24.10;99.90;;;;;;5071481;28;19931;-69
2022/09/03 09:46:36;;;;;;;;;;;23.90;99.90;;;;;;5070637;28;19916;-70
2022/09/03 09:49:02;;;;;;;;;;;23.90;99.90;;;;;;5071027;28;19908;-69
2022/09/03 09:51:29;;;;;;;;;;;24.10;99.90;;;;;;5071021;28;19965;-69
2022/09/03 09:54:03;;;;;;;;;;;24.30;99.90;;;;;;5068643;28;19983;-71
2022/09/03 09:56:28;;;;;;;;;;;24.40;99.90;;;;;;5084774;28;19903;-69
2022/09/03 09:59:07;;;;;;;;;;;24.50;99.90;;;;;;5091503;28;20354;-72
2022/09/03 10:01:35;;;;;;;;;;;24.30;99.90;;;;;;5086521;28;20397;-69
2022/09/03 10:04:10;;;;;;;;;;;24.30;99.90;;;;;;5080372;28;20384;-70
2022/09/03 10:06:55;;;;;;;;;;;24.20;99.90;;;;;;5069942;28;20020;-70
2022/09/03 10:09:28;;;;;;;;;;;24.20;99.90;;;;;;5078667;28;19915;-71
2022/09/03 10:11:57;;;;;;;;;;;24.30;99.90;;;;;;5068825;28;20405;-70
2022/09/03 10:14:25;;;;;;;;;;;24.60;99.90;;;;;;5069564;28;20334;-71
2022/09/03 10:16:54;;;;;;;;;;;24.60;99.90;;;;;;5087569;28;19965;-71
2022/09/03 10:19:23;;;;;;;;;;;24.60;99.90;;;;;;5090935;28;20344;-69
2022/09/03 10:21:52;;;;;;;;;;;24.40;99.90;;;;;;5073643;28;19915;-69
2022/09/03 10:24:28;;;;;;;;;;;24.40;99.90;;;;;;5078561;28;19912;-70
2022/09/03 10:26:54;;;;;;;;;;;24.40;99.90;;;;;;5090895;28;20362;-69
2022/09/03 10:29:21;;;;;;;;;;;24.20;99.90;;;;;;5092604;28;19914;-70
2022/09/03 10:32:06;;;;;;;;;;;24.40;99.90;;;;;;5085587;28;19966;-68
2022/09/03 10:34:37;;;;;;;;;;;24.40;99.90;;;;;;5083258;28;19904;-70
2022/09/03 10:37:18;;;;;;;;;;;24.40;99.90;;;;;;5094017;28;19926;-69
2022/09/03 10:39:44;;;;;;;;;;;24.50;99.90;;;;;;5073041;28;19919;-69
2022/09/03 10:42:24;;;;;;;;;;;24.70;99.90;;;;;;5070430;28;19917;-70
2022/09/03 10:45:00;;;;;;;;;;;24.60;99.90;;;;;;5074965;28;19915;-70
2022/09/03 10:47:52;;;;;;;;;;;24.50;99.90;;;;;;5073941;28;19947;-72
2022/09/03 10:50:17;;;;;;;;;;;24.50;99.90;;;;;;5055753;28;19905;-69
2022/09/03 10:52:57;;;;;;;;;;;24.50;99.90;;;;;;5072140;28;20308;-69
2022/09/03 10:55:34;;;;;;;;;;;24.60;99.90;;;;;;5094150;28;19904;-67
2022/09/03 10:58:00;;;;;;;;;;;24.70;99.90;;;;;;5094617;28;19908;-69
2022/09/03 11:00:29;;;;;;;;;;;24.70;99.90;;;;;;5091331;28;19926;-69
2022/09/03 11:03:01;;;;;;;;;;;24.60;99.90;;;;;;5071791;28;20413;-69
2022/09/03 11:05:37;;;;;;;;;;;24.40;99.90;;;;;;5074996;28;19908;-70
2022/09/03 11:08:20;;;;;;;;;;;24.50;99.90;;;;;;5071901;28;19987;-69
2022/09/03 11:10:52;;;;;;;;;;;24.50;99.90;;;;;;5073208;28;20348;-69
2022/09/03 11:13:21;;;;;;;;;;;24.60;99.90;;;;;;5081988;28;19908;-71
2022/09/03 11:16:11;;;;;;;;;;;24.40;99.90;;;;;;5070506;28;19922;-69
2022/09/03 11:18:41;;;;;;;;;;;24.40;99.90;;;;;;5057953;28;19940;-70
2022/09/03 11:21:09;;;;;;;;;;;24.30;99.90;;;;;;5072180;28;19908;-70
2022/09/03 11:23:38;;;;;;;;;;;24.20;99.90;;;;;;5068231;28;19912;-68
2022/09/03 11:26:11;;;;;;;;;;;24.40;99.90;;;;;;5073955;28;19917;-70
2022/09/03 11:28:37;;;;;;;;;;;24.40;99.90;;;;;;5071773;28;19999;-71
2022/09/03 11:31:05;;;;;;;;;;;24.50;99.90;;;;;;5053902;28;20011;-71
2022/09/03 11:33:32;;;;;;;;;;;24.50;99.90;;;;;;5072821;28;19908;-70
2022/09/03 11:35:59;;;;;;;;;;;24.70;99.90;;;;;;5072581;28;19912;-71
2022/09/03 11:38:27;;;;;;;;;;;24.80;99.90;;;;;;5079844;28;20285;-69
2022/09/03 11:41:10;;;;;;;;;;;24.90;99.90;;;;;;5071264;28;19948;-70
2022/09/03 11:43:36;;;;;;;;;;;25.00;99.90;;;;;;5051118;28;19974;-68
2022/09/03 11:46:12;;;;;;;;;;;25.20;99.90;;;;;;5066893;28;19944;-69
2022/09/03 11:48:42;;;;;;;;;;;25.20;99.90;;;;;;5067429;28;20071;-69
2022/09/03 11:51:29;;;;;;;;;;;25.20;99.90;;;;;;5067378;28;20709;-69
2022/09/03 11:53:57;;;;;;;;;;;25.30;99.90;;;;;;5077377;28;19917;-69
2022/09/03 11:56:23;;;;;;;;;;;25.20;99.90;;;;;;5071532;28;19908;-69
2022/09/03 11:59:00;;;;;;;;;;;25.10;99.90;;;;;;5071975;28;19983;-70
2022/09/03 12:01:27;;;;;;;;;;;25.00;99.90;;;;;;5079682;28;19955;-69
2022/09/03 12:04:04;;;;;;;;;;;25.00;99.90;;;;;;5080021;28;19904;-69
2022/09/03 12:06:48;;;;;;;;;;;25.10;99.90;;;;;;5071439;28;20263;-69
2022/09/03 12:09:32;;;;;;;;;;;25.20;99.90;;;;;;5072050;28;20263;-69
2022/09/03 12:11:58;;;;;;;;;;;25.40;99.90;;;;;;5078962;28;19955;-70
2022/09/03 12:14:32;;;;;;;;;;;25.50;99.90;;;;;;5077021;28;20419;-70
2022/09/03 12:17:06;;;;;;;;;;;25.70;99.90;;;;;;5077023;28;20407;-70
2022/09/03 12:19:32;;;;;;;;;;;25.90;99.90;;;;;;5068907;28;19916;-70
2022/09/03 12:21:57;;;;;;;;;;;25.90;99.90;;;;;;5071239;28;19909;-69
2022/09/03 12:24:27;;;;;;;;;;;25.90;99.90;;;;;;5073773;28;19959;-68
2022/09/03 12:26:56;;;;;;;;;;;25.80;99.90;;;;;;5082288;28;19908;-71
2022/09/03 12:29:23;;;;;;;;;;;25.60;99.90;;;;;;5075613;28;19932;-69
2022/09/03 12:31:50;;;;;;;;;;;25.50;99.90;;;;;;5055284;28;19912;-70
2022/09/03 12:34:17;;;;;;;;;;;25.40;99.90;;;;;;5071882;28;20281;-71
2022/09/03 12:36:47;;;;;;;;;;;25.50;99.90;;;;;;5085306;28;19911;-69
2022/09/03 12:39:14;;;;;;;;;;;25.50;99.90;;;;;;5069628;28;19915;-70
2022/09/03 12:42:00;;;;;;;;;;;25.50;99.90;;;;;;5070644;28;19908;-69
2022/09/03 12:44:28;;;;;;;;;;;25.70;99.90;;;;;;5071213;28;20002;-69
2022/09/03 12:47:23;;;;;;;;;;;25.80;99.90;;;;;;5088715;28;20270;-69
2022/09/03 12:49:56;;;;;;;;;;;25.90;99.90;;;;;;5055593;28;19995;-69
2022/09/03 12:52:27;;;;;;;;;;;25.80;99.90;;;;;;5078501;28;19915;-69
2022/09/03 12:54:53;;;;;;;;;;;25.80;99.90;;;;;;5071908;28;19947;-70
2022/09/03 12:57:20;;;;;;;;;;;25.60;99.90;;;;;;5083139;28;20274;-71
2022/09/03 12:59:47;;;;;;;;;;;25.70;99.90;;;;;;5080983;28;19930;-70
2022/09/03 13:02:23;;;;;;;;;;;25.60;99.90;;;;;;5071697;28;19931;-69
2022/09/03 13:04:50;;;;;;;;;;;25.70;99.90;;;;;;5070610;28;19905;-71
2022/09/03 13:07:22;;;;;;;;;;;25.60;99.90;;;;;;5059777;28;19908;-69
2022/09/03 13:09:48;;;;;;;;;;;25.60;99.90;;;;;;5087692;28;19973;-70
2022/09/03 13:12:27;;;;;;;;;;;25.50;99.90;;;;;;5051568;28;19916;-70
2022/09/03 13:14:53;;;;;;;;;;;25.40;99.90;;;;;;5078938;28;20380;-71
2022/09/03 13:17:22;;;;;;;;;;;25.40;99.90;;;;;;5079603;28;19908;-69
2022/09/03 13:19:58;;;;;;;;;;;25.30;99.90;;;;;;5075511;28;20275;-71
2022/09/03 13:22:42;;;;;;;;;;;25.20;99.90;;;;;;5069109;28;19966;-71
2022/09/03 13:25:08;;;;;;;;;;;25.10;99.90;;;;;;5077750;28;20373;-70
2022/09/03 13:27:36;;;;;;;;;;;25.10;99.90;;;;;;5072277;28;19917;-71
2022/09/03 13:30:05;;;;;;;;;;;25.10;99.90;;;;;;5073652;28;19909;-69
2022/09/03 13:32:35;;;;;;;;;;;25.00;99.90;;;;;;5061840;28;19923;-70
2022/09/03 13:35:11;;;;;;;;;;;25.00;99.90;;;;;;5071202;28;19915;-69
2022/09/03 13:37:39;;;;;;;;;;;24.90;99.90;;;;;;5074182;28;19963;-68
2022/09/03 13:40:22;;;;;;;;;;;24.80;99.90;;;;;;5075918;28;19908;-69
2022/09/03 13:42:55;;;;;;;;;;;24.70;99.90;;;;;;5069140;28;19907;-68
2022/09/03 13:45:34;;;;;;;;;;;24.70;99.90;;;;;;5074813;28;20355;-69
2022/09/03 13:51:11;;;;;;;;;;;24.80;99.90;;;;;;5063612;28;20029;-69
2022/09/03 13:53:47;;;;;;;;;;;24.80;99.90;;;;;;5062083;28;19918;-70
2022/09/03 13:56:18;;;;;;;;;;;24.80;99.90;;;;;;5069683;28;19912;-69
2022/09/03 13:58:59;;;;;;;;;;;24.90;99.90;;;;;;5062371;28;19918;-68
2022/09/03 14:01:24;;;;;;;;;;;25.00;99.90;;;;;;5064211;28;19917;-69
2022/09/03 14:03:52;;;;;;;;;;;25.10;99.90;;;;;;5061976;28;20362;-69
2022/09/03 14:06:54;;;;;;;;;;;25.10;99.90;;;;;;5064587;28;20786;-70
2022/09/03 14:09:32;;;;;;;;;;;25.40;99.90;;;;;;5013796;28;19909;-70
2022/09/03 14:12:05;;;;;;;;;;;25.60;99.90;;;;;;5069199;28;20271;-69
2022/09/03 14:14:45;;;;;;;;;;;25.70;99.90;;;;;;5073311;28;19928;-71
2022/09/03 14:17:17;;;;;;;;;;;25.60;99.90;;;;;;5074237;28;20373;-70
2022/09/03 14:19:43;;;;;;;;;;;25.60;99.90;;;;;;5079284;28;19958;-70
2022/09/03 14:22:18;;;;;;;;;;;25.80;99.90;;;;;;5080216;28;20354;-69
2022/09/03 14:24:55;;;;;;;;;;;25.80;99.90;;;;;;5078474;28;19935;-69
2022/09/03 14:27:22;;;;;;;;;;;25.90;99.90;;;;;;5071739;28;19909;-69
2022/09/03 14:30:17;;;;;;;;;;;25.80;99.90;;;;;;5078434;28;19914;-70
2022/09/03 14:32:51;;;;;;;;;;;25.90;99.90;;;;;;5053828;28;20037;-72
2022/09/03 14:35:19;;;;;;;;;;;26.00;99.90;;;;;;5069878;28;19964;-70